TAP327T LPPR-LPPR
Flight info
| Callsign | TAP327T |
|---|---|
| Flight time | N/A |
| Altitude | 12000 |
| Route | ASMOV2W ASMOV ASMOV3A |
| Aircraft | A321/M-SDE3FGHIRWY/LB1 |
Departure
| Time | 2026-05-01 14:23 |
|---|---|
| Airport | Francisco de Sá Carneiro Airport (LPPR) |
Arrival
| Time | N/A |
|---|---|
| Airport | Francisco de Sá Carneiro Airport (LPPR) |
| Time | Latitude | Longitude | Altitude | Speed | Heading |
|---|---|---|---|---|---|
| 2026-05-01 14:17 | 41.23725 | -8.67404 | 237 ft | 0 kts | 128° |
| 2026-05-01 14:18 | 41.23713 | -8.67380 | 237 ft | 9 kts | 127° |
| 2026-05-01 14:18 | 41.23649 | -8.67337 | 237 ft | 11 kts | 167° |
| 2026-05-01 14:18 | 41.23581 | -8.67342 | 237 ft | 10 kts | 206° |
| 2026-05-01 14:18 | 41.23542 | -8.67371 | 237 ft | 9 kts | 209° |
| 2026-05-01 14:19 | 41.23463 | -8.67381 | 237 ft | 9 kts | 171° |
| 2026-05-01 14:19 | 41.23404 | -8.67366 | 237 ft | 10 kts | 171° |
| 2026-05-01 14:19 | 41.23335 | -8.67412 | 237 ft | 14 kts | 250° |
| 2026-05-01 14:19 | 41.23318 | -8.67519 | 237 ft | 0 kts | 259° |
| 2026-05-01 14:21 | 41.23315 | -8.67541 | 237 ft | 8 kts | 258° |
| 2026-05-01 14:21 | 41.23295 | -8.67668 | 238 ft | 12 kts | 258° |
| 2026-05-01 14:21 | 41.23332 | -8.67739 | 239 ft | 10 kts | 345° |
| 2026-05-01 14:22 | 41.23354 | -8.67745 | 239 ft | 2 kts | 348° |
| 2026-05-01 14:22 | 41.23445 | -8.67769 | 237 ft | 39 kts | 349° |
| 2026-05-01 14:22 | 41.23958 | -8.67905 | 223 ft | 108 kts | 349° |
| 2026-05-01 14:22 | 41.24877 | -8.68145 | 203 ft | 159 kts | 349° |
| 2026-05-01 14:23 | 41.26024 | -8.68438 | 622 ft | 168 kts | 347° |
| 2026-05-01 14:23 | 41.27160 | -8.68745 | 1318 ft | 164 kts | 344° |
| 2026-05-01 14:23 | 41.28265 | -8.69057 | 1992 ft | 161 kts | 343° |
| 2026-05-01 14:23 | 41.29346 | -8.69326 | 2643 ft | 161 kts | 346° |
| 2026-05-01 14:24 | 41.30449 | -8.69563 | 3231 ft | 162 kts | 347° |
| 2026-05-01 14:24 | 41.31635 | -8.69867 | 3483 ft | 185 kts | 347° |
| 2026-05-01 14:24 | 41.32969 | -8.70229 | 3693 ft | 207 kts | 347° |
| 2026-05-01 14:24 | 41.34467 | -8.70639 | 3958 ft | 232 kts | 348° |
| 2026-05-01 14:25 | 41.36131 | -8.71087 | 4293 ft | 256 kts | 348° |
| 2026-05-01 14:25 | 41.37952 | -8.71571 | 4771 ft | 274 kts | 348° |
| 2026-05-01 14:25 | 41.39753 | -8.72452 | 5476 ft | 282 kts | 325° |
| 2026-05-01 14:25 | 41.41094 | -8.74327 | 6262 ft | 277 kts | 294° |
| 2026-05-01 14:26 | 41.41638 | -8.76647 | 7514 ft | 253 kts | 271° |
| 2026-05-01 14:26 | 41.41198 | -8.81099 | 9272 ft | 243 kts | 255° |
| 2026-05-01 14:26 | 41.40842 | -8.83304 | 10020 ft | 244 kts | 250° |
| 2026-05-01 14:27 | 41.40189 | -8.85381 | 10686 ft | 243 kts | 237° |
| 2026-05-01 14:27 | 41.39173 | -8.87235 | 11064 ft | 258 kts | 224° |
| 2026-05-01 14:27 | 41.37764 | -8.88896 | 11151 ft | 284 kts | 218° |
| 2026-05-01 14:28 | 41.34446 | -8.92599 | 11178 ft | 337 kts | 219° |
| 2026-05-01 14:28 | 41.32590 | -8.94683 | 11167 ft | 360 kts | 219° |
| 2026-05-01 14:28 | 41.30631 | -8.96893 | 11161 ft | 376 kts | 219° |
| 2026-05-01 14:28 | 41.28651 | -8.99130 | 11179 ft | 381 kts | 219° |
| 2026-05-01 14:29 | 41.26628 | -9.01416 | 11163 ft | 381 kts | 219° |
| 2026-05-01 14:29 | 41.24611 | -9.03698 | 11167 ft | 381 kts | 219° |
| 2026-05-01 14:30 | 41.18544 | -9.10547 | 11164 ft | 381 kts | 219° |
| 2026-05-01 14:30 | 41.16524 | -9.12818 | 11168 ft | 381 kts | 219° |
| 2026-05-01 14:30 | 41.14499 | -9.15087 | 11169 ft | 381 kts | 219° |
| 2026-05-01 14:31 | 41.10439 | -9.19594 | 11173 ft | 381 kts | 216° |
| 2026-05-01 14:31 | 41.08137 | -9.21287 | 11169 ft | 379 kts | 200° |
| 2026-05-01 14:31 | 41.05595 | -9.21891 | 11164 ft | 379 kts | 179° |
| 2026-05-01 14:31 | 41.03043 | -9.21042 | 11167 ft | 383 kts | 155° |
| 2026-05-01 14:32 | 41.00908 | -9.18934 | 11162 ft | 380 kts | 138° |
| 2026-05-01 14:32 | 40.99195 | -9.16363 | 11165 ft | 370 kts | 130° |
| 2026-05-01 14:32 | 40.97797 | -9.13499 | 11164 ft | 372 kts | 120° |
| 2026-05-01 14:32 | 40.96916 | -9.10272 | 11164 ft | 377 kts | 104° |
| 2026-05-01 14:33 | 40.96697 | -9.06838 | 11041 ft | 369 kts | 95° |
| 2026-05-01 14:33 | 40.96656 | -9.03528 | 10913 ft | 351 kts | 94° |
| 2026-05-01 14:33 | 40.96654 | -9.00368 | 10789 ft | 335 kts | 93° |
| 2026-05-01 14:33 | 40.96661 | -8.97359 | 10666 ft | 320 kts | 93° |
| 2026-05-01 14:34 | 40.96660 | -8.94485 | 10538 ft | 306 kts | 94° |
| 2026-05-01 14:34 | 40.96647 | -8.91733 | 10166 ft | 293 kts | 94° |
| 2026-05-01 14:34 | 40.96626 | -8.89121 | 9651 ft | 280 kts | 94° |
| 2026-05-01 14:34 | 40.96602 | -8.86600 | 9064 ft | 270 kts | 94° |
| 2026-05-01 14:35 | 40.96575 | -8.84161 | 8559 ft | 259 kts | 94° |
| 2026-05-01 14:35 | 40.96549 | -8.81830 | 8111 ft | 249 kts | 94° |
| 2026-05-01 14:35 | 40.96521 | -8.79551 | 7673 ft | 248 kts | 94° |
| 2026-05-01 14:35 | 40.96492 | -8.77257 | 7231 ft | 251 kts | 94° |
| 2026-05-01 14:36 | 40.96468 | -8.74936 | 6772 ft | 254 kts | 92° |
| 2026-05-01 14:36 | 40.96685 | -8.72602 | 6353 ft | 257 kts | 81° |
| 2026-05-01 14:36 | 40.97046 | -8.70287 | 5939 ft | 256 kts | 81° |
| 2026-05-01 14:36 | 40.97392 | -8.68020 | 5550 ft | 248 kts | 82° |
| 2026-05-01 14:37 | 40.97717 | -8.65866 | 5171 ft | 236 kts | 82° |
| 2026-05-01 14:37 | 40.98267 | -8.63887 | 4827 ft | 226 kts | 58° |
| 2026-05-01 14:37 | 40.99386 | -8.62503 | 4425 ft | 219 kts | 31° |
| 2026-05-01 14:37 | 41.00827 | -8.61962 | 3995 ft | 214 kts | 2° |
| 2026-05-01 14:38 | 41.02280 | -8.62219 | 3634 ft | 209 kts | 348° |
| 2026-05-01 14:38 | 41.03694 | -8.62598 | 3315 ft | 204 kts | 348° |
| 2026-05-01 14:38 | 41.05032 | -8.62953 | 3253 ft | 188 kts | 347° |
| 2026-05-01 14:38 | 41.06275 | -8.63283 | 3167 ft | 178 kts | 347° |
| 2026-05-01 14:39 | 41.07465 | -8.63593 | 3032 ft | 171 kts | 347° |
| 2026-05-01 14:39 | 41.08621 | -8.63895 | 2902 ft | 167 kts | 347° |
| 2026-05-01 14:39 | 41.09741 | -8.64189 | 2780 ft | 165 kts | 347° |
| 2026-05-01 14:39 | 41.10864 | -8.64483 | 2656 ft | 164 kts | 346° |
| 2026-05-01 14:40 | 41.11982 | -8.64776 | 2512 ft | 164 kts | 345° |
| 2026-05-01 14:40 | 41.13097 | -8.65069 | 2355 ft | 162 kts | 345° |
| 2026-05-01 14:40 | 41.14204 | -8.65358 | 2171 ft | 163 kts | 346° |
| 2026-05-01 14:40 | 41.15314 | -8.65647 | 1964 ft | 162 kts | 346° |
| 2026-05-01 14:41 | 41.16421 | -8.65935 | 1732 ft | 162 kts | 345° |
| 2026-05-01 14:41 | 41.17533 | -8.66226 | 1523 ft | 164 kts | 344° |
| 2026-05-01 14:41 | 41.18633 | -8.66514 | 1305 ft | 163 kts | 345° |
| 2026-05-01 14:41 | 41.19750 | -8.66806 | 1095 ft | 163 kts | 345° |
| 2026-05-01 14:42 | 41.20675 | -8.67051 | 1425 ft | 182 kts | 346° |
| 2026-05-01 14:42 | 41.22013 | -8.67408 | 2038 ft | 209 kts | 346° |
| 2026-05-01 14:42 | 41.23484 | -8.67798 | 2723 ft | 220 kts | 347° |
| 2026-05-01 14:42 | 41.25019 | -8.68220 | 3268 ft | 229 kts | 347° |
| 2026-05-01 14:43 | 41.26595 | -8.68656 | 3887 ft | 234 kts | 348° |
| 2026-05-01 14:43 | 41.28206 | -8.69072 | 4539 ft | 237 kts | 349° |
| 2026-05-01 14:43 | 41.29827 | -8.69532 | 5185 ft | 240 kts | 341° |
| 2026-05-01 14:43 | 41.31138 | -8.70814 | 5746 ft | 242 kts | 302° |
| 2026-05-01 14:44 | 41.31637 | -8.72922 | 5984 ft | 239 kts | 264° |
| 2026-05-01 14:44 | 41.30469 | -8.76873 | 6012 ft | 229 kts | 237° |
| 2026-05-01 14:44 | 41.29690 | -8.78723 | 6010 ft | 229 kts | 237° |
| 2026-05-01 14:45 | 41.28956 | -8.80608 | 6015 ft | 230 kts | 240° |
| 2026-05-01 14:45 | 41.27638 | -8.84486 | 6014 ft | 231 kts | 243° |
| 2026-05-01 14:45 | 41.27029 | -8.86463 | 6017 ft | 231 kts | 244° |
| 2026-05-01 14:46 | 41.26441 | -8.88447 | 6012 ft | 231 kts | 245° |
| 2026-05-01 14:46 | 41.25304 | -8.92411 | 6017 ft | 231 kts | 245° |
| 2026-05-01 14:46 | 41.24738 | -8.94410 | 6022 ft | 231 kts | 245° |
| 2026-05-01 14:47 | 41.24173 | -8.96409 | 6024 ft | 231 kts | 245° |
| 2026-05-01 14:47 | 41.23611 | -8.98405 | 6025 ft | 231 kts | 246° |
| 2026-05-01 14:47 | 41.23050 | -9.00409 | 6025 ft | 231 kts | 246° |
| 2026-05-01 14:48 | 41.21127 | -9.03482 | 6025 ft | 219 kts | 194° |
| 2026-05-01 14:48 | 41.19631 | -9.03857 | 6031 ft | 220 kts | 188° |
| 2026-05-01 14:48 | 41.16864 | -9.05443 | 6032 ft | 226 kts | 225° |
| 2026-05-01 14:49 | 41.15872 | -9.09372 | 6040 ft | 237 kts | 271° |
| 2026-05-01 14:49 | 41.17588 | -9.12925 | 6044 ft | 244 kts | 333° |
| 2026-05-01 14:50 | 41.19802 | -9.13113 | 6036 ft | 245 kts | 22° |
| 2026-05-01 14:50 | 41.21970 | -9.08336 | 6037 ft | 235 kts | 83° |
| 2026-05-01 14:51 | 41.22245 | -9.06201 | 6105 ft | 234 kts | 85° |
| 2026-05-01 14:51 | 41.22756 | -9.01932 | 6143 ft | 234 kts | 85° |
| 2026-05-01 14:52 | 41.22048 | -8.98027 | 6143 ft | 220 kts | 140° |
| 2026-05-01 14:52 | 41.20737 | -8.97118 | 6154 ft | 218 kts | 171° |
| 2026-05-01 14:52 | 41.17925 | -8.98347 | 6149 ft | 226 kts | 224° |
| 2026-05-01 14:53 | 41.17105 | -9.00127 | 6149 ft | 231 kts | 249° |
| 2026-05-01 14:53 | 41.16646 | -9.02188 | 6153 ft | 233 kts | 252° |
| 2026-05-01 14:53 | 41.16254 | -9.04276 | 6161 ft | 233 kts | 253° |
| 2026-05-01 14:53 | 41.15902 | -9.06378 | 6158 ft | 234 kts | 255° |
| 2026-05-01 14:54 | 41.15573 | -9.08492 | 6168 ft | 234 kts | 256° |
| 2026-05-01 14:54 | 41.15577 | -9.10650 | 6166 ft | 237 kts | 282° |
| 2026-05-01 14:54 | 41.16367 | -9.12558 | 6165 ft | 241 kts | 314° |
| 2026-05-01 14:54 | 41.17814 | -9.13655 | 6169 ft | 244 kts | 348° |
| 2026-05-01 14:55 | 41.19491 | -9.13548 | 6160 ft | 244 kts | 22° |
| 2026-05-01 14:55 | 41.20873 | -9.12303 | 6163 ft | 241 kts | 53° |
| 2026-05-01 14:55 | 41.21606 | -9.10383 | 6163 ft | 236 kts | 80° |
| 2026-05-01 14:55 | 41.21921 | -9.08244 | 6143 ft | 236 kts | 84° |
| 2026-05-01 14:56 | 41.22198 | -9.06107 | 6151 ft | 234 kts | 84° |
| 2026-05-01 14:56 | 41.22467 | -9.03974 | 6149 ft | 234 kts | 84° |
| 2026-05-01 14:56 | 41.22735 | -9.01853 | 6153 ft | 234 kts | 84° |
| 2026-05-01 14:56 | 41.22758 | -8.99736 | 6149 ft | 227 kts | 109° |
| 2026-05-01 14:57 | 41.21996 | -8.97978 | 6147 ft | 220 kts | 141° |
| 2026-05-01 14:57 | 41.19147 | -8.97338 | 6147 ft | 221 kts | 200° |
| 2026-05-01 14:57 | 41.17877 | -8.98439 | 6144 ft | 225 kts | 225° |
| 2026-05-01 14:58 | 41.17088 | -9.00244 | 6152 ft | 231 kts | 249° |
| 2026-05-01 14:58 | 41.16634 | -9.02305 | 6148 ft | 233 kts | 252° |
| 2026-05-01 14:58 | 41.16244 | -9.04390 | 6158 ft | 233 kts | 253° |
| 2026-05-01 14:58 | 41.15891 | -9.06494 | 6163 ft | 234 kts | 255° |
| 2026-05-01 14:59 | 41.15562 | -9.08607 | 6164 ft | 234 kts | 257° |
| 2026-05-01 14:59 | 41.15607 | -9.10762 | 6165 ft | 237 kts | 284° |
| 2026-05-01 14:59 | 41.16442 | -9.12637 | 6165 ft | 241 kts | 316° |
| 2026-05-01 14:59 | 41.17910 | -9.13677 | 6166 ft | 244 kts | 349° |
| 2026-05-01 15:00 | 41.20933 | -9.12206 | 6165 ft | 240 kts | 55° |
| 2026-05-01 15:00 | 41.21620 | -9.10258 | 6161 ft | 236 kts | 81° |
| 2026-05-01 15:00 | 41.21933 | -9.08092 | 6154 ft | 236 kts | 84° |
| 2026-05-01 15:01 | 41.22206 | -9.05983 | 6157 ft | 234 kts | 84° |
| 2026-05-01 15:01 | 41.22476 | -9.03856 | 6154 ft | 233 kts | 84° |
| 2026-05-01 15:01 | 41.22747 | -9.01733 | 6152 ft | 233 kts | 84° |
| 2026-05-01 15:01 | 41.22732 | -8.99627 | 6148 ft | 226 kts | 110° |
| 2026-05-01 15:02 | 41.21929 | -8.97904 | 6146 ft | 219 kts | 143° |
| 2026-05-01 15:02 | 41.21596 | -8.97579 | 6146 ft | 218 kts | 152° |
| 2026-05-01 15:02 | 41.19391 | -8.97248 | 6150 ft | 220 kts | 196° |
| 2026-05-01 15:02 | 41.17989 | -8.98090 | 6116 ft | 224 kts | 202° |
| 2026-05-01 15:03 | 41.16493 | -8.98500 | 5865 ft | 219 kts | 181° |
| 2026-05-01 15:03 | 41.15041 | -8.98110 | 5609 ft | 217 kts | 155° |
| 2026-05-01 15:03 | 41.13711 | -8.97171 | 5357 ft | 217 kts | 150° |
| 2026-05-01 15:03 | 41.12415 | -8.96160 | 5095 ft | 216 kts | 150° |
| 2026-05-01 15:04 | 41.11130 | -8.95146 | 4857 ft | 214 kts | 150° |
| 2026-05-01 15:04 | 41.09909 | -8.94181 | 4611 ft | 214 kts | 150° |
| 2026-05-01 15:04 | 41.08636 | -8.93174 | 4351 ft | 213 kts | 150° |
| 2026-05-01 15:04 | 41.07365 | -8.92163 | 4188 ft | 213 kts | 150° |
| 2026-05-01 15:05 | 41.06090 | -8.91144 | 4146 ft | 214 kts | 150° |
| 2026-05-01 15:05 | 41.04821 | -8.90129 | 4146 ft | 214 kts | 150° |
| 2026-05-01 15:05 | 41.03544 | -8.89108 | 4149 ft | 214 kts | 150° |
| 2026-05-01 15:05 | 41.02264 | -8.88090 | 4148 ft | 214 kts | 150° |
| 2026-05-01 15:06 | 41.00987 | -8.87074 | 4146 ft | 214 kts | 150° |
| 2026-05-01 15:06 | 40.99712 | -8.86058 | 4144 ft | 214 kts | 150° |
| 2026-05-01 15:06 | 40.98450 | -8.85059 | 4144 ft | 215 kts | 150° |
| 2026-05-01 15:06 | 40.97168 | -8.84043 | 4145 ft | 215 kts | 150° |